createdAt,value
2018-09-28T00:00:37.070Z,4.50
2018-09-28T00:03:11.781Z,4.47
2018-09-28T00:05:47.167Z,4.10
2018-09-28T00:08:21.977Z,4.00
2018-09-28T00:10:58.126Z,3.60
2018-09-28T00:13:32.860Z,3.90
2018-09-28T00:16:07.777Z,4.27
2018-09-28T00:18:42.629Z,4.40
2018-09-28T00:21:17.360Z,5.70
2018-09-28T00:23:52.196Z,4.90
2018-09-28T00:26:27.910Z,4.83
2018-09-28T00:29:03.053Z,4.90
2018-09-28T00:31:37.840Z,4.50
2018-09-28T00:34:12.705Z,4.70
2018-09-28T00:36:47.498Z,4.57
2018-09-28T00:39:22.569Z,4.40
2018-09-28T00:41:57.297Z,4.43
2018-09-28T00:44:31.991Z,4.10
2018-09-28T00:47:07.464Z,4.60
2018-09-28T00:49:42.298Z,4.83
2018-09-28T00:52:17.286Z,5.23
2018-09-28T00:54:52.074Z,4.70
2018-09-28T00:57:26.801Z,4.80
2018-09-28T01:00:01.571Z,4.50
2018-09-28T01:02:36.602Z,5.13
2018-09-28T01:05:11.811Z,4.97
2018-09-28T01:07:47.504Z,5.10
2018-09-28T01:10:22.590Z,5.50
2018-09-28T01:12:58.018Z,5.17
2018-09-28T01:15:33.529Z,4.93
2018-09-28T01:18:09.022Z,4.70
2018-09-28T01:20:43.765Z,5.23
2018-09-28T01:23:18.482Z,5.80
2018-09-28T01:25:53.404Z,5.73
2018-09-28T01:28:28.227Z,5.13
2018-09-28T01:31:04.120Z,5.17
2018-09-28T01:33:39.518Z,5.40
2018-09-28T01:36:14.998Z,5.00
2018-09-28T01:38:50.238Z,5.27
2018-09-28T01:41:25.642Z,5.33
2018-09-28T01:44:01.129Z,5.90
2018-09-28T01:46:36.237Z,6.13
2018-09-28T01:49:11.660Z,5.67
2018-09-28T01:51:47.304Z,5.30
2018-09-28T01:54:22.146Z,5.60
2018-09-28T01:56:56.885Z,5.27
2018-09-28T01:59:32.222Z,5.03
2018-09-28T02:02:08.070Z,5.50
2018-09-28T02:04:42.797Z,4.53
2018-09-28T02:07:17.721Z,4.77
2018-09-28T02:09:52.587Z,5.23
2018-09-28T02:12:27.676Z,5.33
2018-09-28T02:15:03.343Z,5.67
2018-09-28T02:17:38.664Z,5.13
2018-09-28T02:20:13.646Z,4.53
2018-09-28T02:22:48.434Z,6.00
2018-09-28T02:25:23.193Z,5.20
2018-09-28T02:27:58.033Z,5.23
2018-09-28T02:30:32.745Z,5.20
2018-09-28T02:33:07.485Z,5.50
2018-09-28T02:35:42.290Z,5.20
2018-09-28T02:38:17.021Z,5.57
2018-09-28T02:40:51.845Z,5.40
2018-09-28T02:43:26.805Z,5.00
2018-09-28T02:46:01.626Z,4.57
2018-09-28T02:48:37.013Z,5.30
2018-09-28T02:51:11.844Z,4.90
2018-09-28T02:53:46.450Z,4.97
2018-09-28T02:56:21.366Z,4.13
2018-09-28T02:58:56.308Z,4.90
2018-09-28T03:01:31.442Z,5.23
2018-09-28T03:04:06.653Z,5.20
2018-09-28T03:06:41.621Z,4.97
2018-09-28T03:09:16.460Z,5.37
2018-09-28T03:11:52.011Z,5.23
2018-09-28T03:14:27.042Z,5.77
2018-09-28T03:17:01.939Z,5.07
2018-09-28T03:19:36.698Z,5.30
2018-09-28T03:22:12.414Z,5.03
2018-09-28T03:24:47.192Z,5.97
2018-09-28T03:27:22.226Z,21.87
2018-09-28T03:29:57.112Z,12.13
2018-09-28T03:32:31.878Z,9.70
2018-09-28T03:35:06.571Z,6.20
2018-09-28T03:37:42.102Z,8.47
2018-09-28T03:40:16.734Z,5.37
2018-09-28T03:42:51.482Z,5.97
2018-09-28T03:45:26.290Z,6.23
2018-09-28T03:48:01.269Z,5.70
2018-09-28T03:50:35.923Z,7.00
2018-09-28T03:53:11.526Z,6.87
2018-09-28T03:55:46.342Z,6.83
2018-09-28T03:58:21.386Z,7.20
2018-09-28T04:00:56.870Z,6.10
2018-09-28T04:03:31.615Z,5.73
2018-09-28T04:06:06.773Z,5.83
2018-09-28T04:08:42.267Z,5.47
2018-09-28T04:11:16.988Z,5.80
2018-09-28T04:13:52.176Z,6.33
2018-09-28T04:16:27.021Z,6.53
2018-09-28T04:19:01.824Z,5.53
2018-09-28T04:21:36.694Z,6.63
2018-09-28T04:24:12.266Z,6.67
2018-09-28T04:26:47.750Z,5.50
2018-09-28T04:29:22.884Z,5.10
2018-09-28T04:31:57.586Z,5.77
2018-09-28T04:34:32.349Z,6.73
2018-09-28T04:37:07.437Z,6.70
2018-09-28T04:39:42.854Z,7.20
2018-09-28T04:42:17.796Z,5.50
2018-09-28T04:44:53.246Z,6.83
2018-09-28T04:47:27.937Z,5.73
2018-09-28T04:50:02.636Z,6.53
2018-09-28T04:52:37.501Z,5.90
2018-09-28T04:55:13.014Z,6.93
2018-09-28T04:57:47.874Z,6.50
2018-09-28T05:00:23.515Z,7.07
2018-09-28T05:02:59.060Z,5.60
2018-09-28T05:05:34.093Z,5.53
2018-09-28T05:08:08.765Z,5.97
2018-09-28T05:10:43.574Z,7.03
2018-09-28T05:13:19.242Z,6.47
2018-09-28T05:15:55.123Z,7.00
2018-09-28T05:18:30.183Z,6.00
2018-09-28T05:21:05.211Z,6.27
2018-09-28T05:23:39.957Z,7.03
2018-09-28T05:26:15.390Z,6.87
2018-09-28T05:28:50.145Z,6.13
2018-09-28T05:31:25.080Z,6.80
2018-09-28T05:34:00.639Z,6.33
2018-09-28T05:36:35.374Z,8.97
2018-09-28T05:39:10.570Z,8.63
2018-09-28T05:41:45.191Z,9.30
2018-09-28T05:44:20.779Z,8.93
2018-09-28T05:46:56.090Z,7.70
2018-09-28T05:49:31.022Z,7.67
2018-09-28T05:52:05.694Z,8.37
2018-09-28T05:54:41.369Z,7.87
2018-09-28T05:57:15.916Z,8.00
2018-09-28T05:59:56.185Z,7.87
2018-09-28T06:02:36.571Z,7.63
2018-09-28T06:05:16.597Z,8.10
2018-09-28T06:07:51.409Z,6.63
2018-09-28T06:10:26.273Z,6.83
2018-09-28T06:13:01.010Z,6.13
2018-09-28T06:15:35.753Z,7.10
2018-09-28T06:18:10.512Z,6.47
2018-09-28T06:20:45.710Z,7.33
2018-09-28T06:23:20.691Z,7.77
2018-09-28T06:25:56.202Z,7.83
2018-09-28T06:28:31.342Z,7.27
2018-09-28T06:31:06.615Z,7.90
2018-09-28T06:33:41.254Z,8.37
2018-09-28T06:36:16.237Z,7.63
2018-09-28T06:38:51.164Z,7.90
2018-09-28T06:41:26.025Z,8.53
2018-09-28T06:44:00.877Z,8.70
2018-09-28T06:46:35.804Z,7.23
2018-09-28T06:49:10.840Z,7.27
2018-09-28T06:51:45.670Z,7.20
2018-09-28T06:54:20.454Z,7.57
2018-09-28T06:56:55.446Z,7.83
2018-09-28T06:59:30.278Z,8.60
2018-09-28T07:02:04.997Z,8.30
2018-09-28T07:04:39.731Z,8.53
2018-09-28T07:07:14.967Z,7.17
2018-09-28T07:09:49.888Z,7.77
2018-09-28T07:12:24.728Z,7.23
2018-09-28T07:14:59.555Z,7.50
2018-09-28T07:17:34.375Z,7.97
2018-09-28T07:20:09.285Z,6.90
2018-09-28T07:22:44.351Z,6.67
2018-09-28T07:25:19.203Z,6.70
2018-09-28T07:27:54.038Z,7.80
2018-09-28T07:30:28.960Z,9.10
2018-09-28T07:33:03.932Z,11.00
2018-09-28T07:35:39.006Z,9.77
2018-09-28T07:38:14.110Z,8.10
2018-09-28T07:40:49.053Z,8.00
2018-09-28T07:43:23.952Z,7.50
2018-09-28T07:45:58.682Z,6.90
2018-09-28T07:48:33.507Z,6.70
2018-09-28T07:51:08.966Z,6.17
2018-09-28T07:53:44.273Z,6.10
2018-09-28T07:56:19.767Z,6.00
2018-09-28T07:58:55.389Z,5.78
2018-09-28T08:01:30.649Z,5.08
2018-09-28T08:04:06.214Z,4.90
2018-09-28T08:06:42.622Z,5.03
2018-09-28T08:09:18.046Z,5.10
2018-09-28T08:11:53.385Z,4.80
2018-09-28T08:14:28.819Z,4.67
2018-09-28T08:17:05.110Z,4.75
2018-09-28T08:19:40.958Z,5.10
2018-09-28T08:22:16.318Z,4.72
2018-09-28T08:24:51.712Z,4.35
2018-09-28T08:27:27.910Z,4.33
2018-09-28T08:30:03.557Z,4.83
2018-09-28T08:32:38.894Z,4.28
2018-09-28T08:35:14.353Z,4.15
2018-09-28T08:37:49.730Z,4.28
2018-09-28T08:40:25.166Z,4.85
2018-09-28T08:43:00.620Z,3.92
2018-09-28T08:45:35.988Z,4.17
2018-09-28T08:48:11.477Z,3.75
2018-09-28T08:50:46.858Z,3.70
2018-09-28T08:53:22.194Z,4.17
2018-09-28T08:55:57.619Z,4.37
2018-09-28T08:58:32.933Z,3.87
2018-09-28T09:01:08.370Z,4.10
2018-09-28T09:03:43.923Z,4.22
2018-09-28T09:06:19.489Z,4.17
2018-09-28T09:08:55.537Z,3.22
2018-09-28T09:11:30.812Z,3.42
2018-09-28T09:14:06.252Z,3.37
2018-09-28T09:16:41.470Z,4.10
2018-09-28T09:19:16.959Z,3.20
2018-09-28T09:21:52.006Z,3.03
2018-09-28T09:24:27.193Z,3.50
2018-09-28T09:27:02.250Z,3.43
2018-09-28T09:29:37.366Z,3.17
2018-09-28T09:32:12.519Z,3.03
2018-09-28T09:34:48.030Z,2.80
2018-09-28T09:37:23.263Z,2.93
2018-09-28T09:39:58.747Z,2.70
2018-09-28T09:42:33.995Z,3.07
2018-09-28T09:45:09.290Z,3.03
2018-09-28T09:47:44.796Z,2.87
2018-09-28T09:50:20.273Z,2.90
2018-09-28T09:52:55.404Z,2.50
2018-09-28T09:55:31.273Z,2.40
2018-09-28T09:58:06.464Z,2.60
2018-09-28T10:00:46.917Z,2.57
2018-09-28T10:03:27.259Z,2.33
2018-09-28T10:06:02.285Z,2.70
2018-09-28T10:08:37.717Z,2.50
2018-09-28T10:11:12.864Z,3.07
2018-09-28T10:13:48.006Z,2.70
2018-09-28T10:16:23.026Z,3.00
2018-09-28T10:18:58.935Z,2.93
2018-09-28T10:21:35.249Z,3.00
2018-09-28T10:24:10.181Z,3.10
2018-09-28T10:26:46.147Z,3.43
2018-09-28T10:29:21.440Z,2.80
2018-09-28T10:31:56.733Z,3.40
2018-09-28T10:34:31.923Z,4.17
2018-09-28T10:37:07.737Z,3.27
2018-09-28T10:39:42.841Z,3.20
2018-09-28T10:42:18.129Z,3.17
2018-09-28T10:44:53.677Z,3.23
2018-09-28T10:47:28.698Z,2.70
2018-09-28T10:50:04.140Z,3.30
2018-09-28T10:52:39.223Z,3.10
2018-09-28T10:55:14.586Z,3.30
2018-09-28T10:57:49.661Z,3.40
2018-09-28T11:00:24.866Z,3.50
2018-09-28T11:03:00.081Z,3.70
2018-09-28T11:05:35.190Z,3.37
2018-09-28T11:08:10.221Z,3.27
2018-09-28T11:10:45.451Z,3.33
2018-09-28T11:13:20.622Z,3.57
2018-09-28T11:15:56.100Z,3.30
2018-09-28T11:18:31.212Z,3.70
2018-09-28T11:21:06.810Z,3.60
2018-09-28T11:23:42.086Z,3.73
2018-09-28T11:26:17.284Z,3.53
2018-09-28T11:28:52.961Z,3.07
2018-09-28T11:31:28.091Z,3.43
2018-09-28T11:34:03.945Z,3.03
2018-09-28T11:36:39.228Z,3.70
2018-09-28T11:39:14.408Z,3.47
2018-09-28T11:41:49.882Z,3.27
2018-09-28T11:44:24.856Z,3.60
2018-09-28T11:46:59.877Z,3.37
2018-09-28T11:49:34.994Z,3.37
2018-09-28T11:52:10.850Z,3.23
2018-09-28T11:54:45.831Z,3.60
2018-09-28T11:57:21.117Z,3.10
2018-09-28T11:59:56.868Z,3.57
2018-09-28T12:02:32.190Z,3.10
2018-09-28T12:05:08.206Z,3.27
2018-09-28T12:07:43.391Z,3.30
2018-09-28T12:10:18.838Z,3.30
2018-09-28T12:12:53.954Z,3.10
2018-09-28T12:15:29.283Z,2.87
2018-09-28T12:18:04.664Z,3.10
2018-09-28T12:20:39.830Z,3.30
2018-09-28T12:23:14.951Z,3.30
2018-09-28T12:25:50.754Z,3.20
2018-09-28T12:28:25.739Z,3.10
2018-09-28T12:31:01.099Z,3.40
2018-09-28T12:33:36.310Z,3.00
2018-09-28T12:36:11.765Z,3.60
2018-09-28T12:38:47.814Z,3.40
2018-09-28T12:41:23.006Z,3.57
2018-09-28T12:43:58.103Z,3.30
2018-09-28T12:46:33.298Z,3.13
2018-09-28T12:49:08.278Z,3.40
2018-09-28T12:51:43.363Z,3.40
2018-09-28T12:54:18.707Z,3.13
2018-09-28T12:56:54.002Z,3.30
2018-09-28T12:59:29.242Z,3.03
2018-09-28T13:02:04.784Z,3.43
2018-09-28T13:04:40.208Z,3.03
2018-09-28T13:07:15.384Z,3.00
2018-09-28T13:09:51.143Z,3.00
2018-09-28T13:12:26.421Z,3.00
2018-09-28T13:15:01.773Z,3.03
2018-09-28T13:17:37.034Z,3.10
2018-09-28T13:20:13.161Z,3.27
2018-09-28T13:22:48.542Z,2.70
2018-09-28T13:25:23.808Z,2.67
2018-09-28T13:27:58.943Z,3.07
2018-09-28T13:30:34.770Z,3.07
2018-09-28T13:33:10.057Z,3.30
2018-09-28T13:35:45.134Z,2.40
2018-09-28T13:38:20.249Z,2.67
2018-09-28T13:40:55.454Z,2.80
2018-09-28T13:43:30.624Z,2.80
2018-09-28T13:46:06.579Z,3.07
2018-09-28T13:48:42.117Z,2.57
2018-09-28T13:51:17.755Z,2.93
2018-09-28T13:53:52.949Z,2.87
2018-09-28T13:56:28.352Z,3.37
2018-09-28T13:59:04.837Z,3.00
2018-09-28T14:01:39.889Z,2.63
2018-09-28T14:04:15.390Z,2.80
2018-09-28T14:06:51.177Z,3.07
2018-09-28T14:09:26.343Z,2.63
2018-09-28T14:12:01.405Z,2.80
2018-09-28T14:14:36.636Z,2.93
2018-09-28T14:17:12.150Z,3.30
2018-09-28T14:19:47.589Z,3.20
2018-09-28T14:22:22.819Z,3.00
2018-09-28T14:24:57.963Z,2.83
2018-09-28T14:27:33.799Z,2.83
2018-09-28T14:30:09.883Z,3.00
2018-09-28T14:32:45.258Z,3.20
2018-09-28T14:35:21.160Z,3.07
2018-09-28T14:37:56.209Z,2.97
2018-09-28T14:40:31.306Z,3.17
2018-09-28T14:43:06.680Z,2.50
2018-09-28T14:45:41.856Z,2.97
2018-09-28T14:48:17.713Z,2.80
2018-09-28T14:50:52.958Z,2.40
2018-09-28T14:53:28.161Z,2.57
2018-09-28T14:56:03.350Z,3.27
2018-09-28T14:58:38.614Z,2.97
2018-09-28T15:01:14.239Z,3.23
2018-09-28T15:03:49.407Z,3.10
2018-09-28T15:06:24.859Z,2.70
2018-09-28T15:09:00.191Z,3.20
2018-09-28T15:11:35.295Z,2.93
2018-09-28T15:14:11.399Z,2.93
2018-09-28T15:16:47.558Z,2.70
2018-09-28T15:19:23.308Z,3.15
2018-09-28T15:21:58.732Z,2.72
2018-09-28T15:24:34.229Z,2.95
2018-09-28T15:27:10.165Z,2.45
2018-09-28T15:29:46.320Z,2.92
2018-09-28T15:32:21.940Z,2.50
2018-09-28T15:34:57.477Z,2.75
2018-09-28T15:37:32.751Z,2.80
2018-09-28T15:40:09.115Z,3.05
2018-09-28T15:42:44.534Z,2.80
2018-09-28T15:45:20.304Z,3.08
2018-09-28T15:47:55.566Z,3.15
2018-09-28T15:50:30.804Z,3.30
2018-09-28T15:53:06.217Z,3.40
2018-09-28T15:55:41.531Z,18.23
2018-09-28T15:58:16.836Z,6.83
2018-09-28T16:00:52.305Z,3.30
2018-09-28T16:03:27.742Z,3.05
2018-09-28T16:06:03.299Z,3.20
2018-09-28T16:08:38.797Z,3.62
2018-09-28T16:11:15.065Z,3.50
2018-09-28T16:13:50.411Z,3.15
2018-09-28T16:16:25.763Z,3.22
2018-09-28T16:19:01.394Z,3.02
2018-09-28T16:21:37.051Z,3.40
2018-09-28T16:24:13.243Z,3.60
2018-09-28T16:26:48.701Z,3.80
2018-09-28T16:29:24.742Z,3.60
2018-09-28T16:32:00.506Z,3.45
2018-09-28T16:34:35.975Z,3.42
2018-09-28T16:37:11.506Z,3.47
2018-09-28T16:39:46.859Z,3.55
2018-09-28T16:42:22.367Z,3.65
2018-09-28T16:44:57.700Z,3.95
2018-09-28T16:47:33.872Z,7.65
2018-09-28T16:50:09.505Z,4.40
2018-09-28T16:52:45.737Z,3.95
2018-09-28T16:55:21.917Z,3.87
2018-09-28T16:57:57.471Z,3.90
2018-09-28T17:00:32.941Z,4.20
2018-09-28T17:03:09.212Z,3.90
2018-09-28T17:05:45.887Z,4.05
2018-09-28T17:08:21.507Z,3.30
2018-09-28T17:10:56.728Z,3.90
2018-09-28T17:13:32.049Z,3.37
2018-09-28T17:16:08.234Z,3.65
2018-09-28T17:18:43.560Z,4.10
2018-09-28T17:21:19.068Z,4.72
2018-09-28T17:23:54.467Z,5.28
2018-09-28T17:26:29.872Z,4.67
2018-09-28T17:29:05.281Z,4.78
2018-09-28T17:31:40.582Z,4.80
2018-09-28T17:34:16.023Z,6.78
2018-09-28T17:36:51.440Z,4.90
2018-09-28T17:39:26.919Z,5.53
2018-09-28T17:42:02.940Z,5.35
2018-09-28T17:44:38.294Z,3.95
2018-09-28T17:47:15.330Z,4.45
2018-09-28T17:49:51.646Z,4.12
2018-09-28T17:52:27.168Z,6.00
2018-09-28T17:55:02.706Z,6.70
2018-09-28T17:57:38.043Z,6.37
2018-09-28T18:00:13.518Z,6.55
2018-09-28T18:02:48.823Z,6.53
2018-09-28T18:05:24.414Z,5.97
2018-09-28T18:07:59.754Z,5.92
2018-09-28T18:10:35.163Z,7.10
2018-09-28T18:13:10.632Z,6.37
2018-09-28T18:15:46.181Z,8.85
2018-09-28T18:18:21.819Z,9.15
2018-09-28T18:20:57.142Z,8.95
2018-09-28T18:23:32.749Z,9.35
2018-09-28T18:26:08.703Z,9.45
2018-09-28T18:28:44.315Z,9.23
2018-09-28T18:31:20.708Z,9.68
2018-09-28T18:33:56.838Z,11.43
2018-09-28T18:36:32.641Z,8.75
2018-09-28T18:39:09.462Z,8.93
2018-09-28T18:41:44.917Z,8.58
2018-09-28T18:44:20.366Z,7.28
2018-09-28T18:46:55.685Z,9.53
2018-09-28T18:49:31.111Z,9.78
2018-09-28T18:52:06.603Z,8.33
2018-09-28T18:54:41.708Z,9.70
2018-09-28T18:57:16.402Z,8.80
2018-09-28T18:59:52.002Z,9.15
2018-09-28T19:02:26.942Z,9.20
2018-09-28T19:05:01.836Z,8.90
2018-09-28T19:07:37.099Z,9.40
2018-09-28T19:10:12.527Z,8.70
2018-09-28T19:12:47.284Z,8.90
2018-09-28T19:15:22.290Z,8.77
2018-09-28T19:17:57.969Z,8.37
2018-09-28T19:20:32.876Z,8.47
2018-09-28T19:23:07.709Z,8.47
2018-09-28T19:25:42.731Z,8.43
2018-09-28T19:28:17.766Z,8.43
2018-09-28T19:30:52.523Z,7.40
2018-09-28T19:33:28.094Z,7.90
2018-09-28T19:36:02.950Z,6.93
2018-09-28T19:38:37.938Z,7.00
2018-09-28T19:41:13.373Z,5.73
2018-09-28T19:43:48.287Z,6.40
2018-09-28T19:46:23.584Z,5.73
2018-09-28T19:48:58.340Z,5.70
2018-09-28T19:51:33.319Z,5.83
2018-09-28T19:54:08.329Z,5.80
2018-09-28T19:56:43.099Z,4.97
2018-09-28T19:59:17.849Z,5.40
2018-09-28T20:01:52.530Z,5.40
2018-09-28T20:04:27.533Z,4.60
2018-09-28T20:07:02.903Z,5.37
2018-09-28T20:09:38.554Z,20.27
2018-09-28T20:12:14.050Z,20.43
2018-09-28T20:14:48.717Z,7.43
2018-09-28T20:17:23.534Z,8.47
2018-09-28T20:19:58.464Z,8.17
2018-09-28T20:22:34.268Z,8.93
2018-09-28T20:25:09.679Z,8.60
2018-09-28T20:27:44.459Z,7.70
2018-09-28T20:30:19.743Z,7.13
2018-09-28T20:32:54.820Z,5.93
2018-09-28T20:35:30.057Z,6.50
2018-09-28T20:38:05.155Z,5.43
2018-09-28T20:40:40.208Z,4.57
2018-09-28T20:43:15.147Z,4.27
2018-09-28T20:45:50.487Z,4.50
2018-09-28T20:48:25.826Z,4.70
2018-09-28T20:51:00.850Z,6.83
2018-09-28T20:53:35.783Z,4.20
2018-09-28T20:56:11.399Z,4.43
2018-09-28T20:58:46.179Z,3.93
2018-09-28T21:01:22.765Z,4.67
2018-09-28T21:03:57.852Z,7.57
2018-09-28T21:06:32.929Z,16.20
2018-09-28T21:09:09.328Z,8.80
2018-09-28T21:11:44.230Z,6.07
2018-09-28T21:14:19.202Z,5.67
2018-09-28T21:16:54.232Z,5.60
2018-09-28T21:19:29.158Z,5.63
2018-09-28T21:22:03.919Z,5.87
2018-09-28T21:24:38.761Z,5.40
2018-09-28T21:27:13.736Z,5.97
2018-09-28T21:29:48.497Z,6.53
2018-09-28T21:32:23.924Z,6.00
2018-09-28T21:34:58.830Z,7.07
2018-09-28T21:37:34.115Z,7.30
2018-09-28T21:40:09.178Z,7.27
2018-09-28T21:42:44.630Z,7.77
2018-09-28T21:45:19.746Z,8.77
2018-09-28T21:47:54.689Z,7.90
2018-09-28T21:50:29.583Z,9.33
2018-09-28T21:53:04.413Z,8.43
2018-09-28T21:55:39.573Z,9.33
2018-09-28T21:58:14.434Z,8.60
2018-09-28T22:00:55.945Z,8.13
2018-09-28T22:03:30.981Z,7.43
2018-09-28T22:06:05.730Z,8.17
2018-09-28T22:08:40.865Z,9.43
2018-09-28T22:11:16.093Z,9.43
2018-09-28T22:13:51.402Z,14.50
2018-09-28T22:16:26.382Z,12.47
2018-09-28T22:19:01.194Z,9.60
2018-09-28T22:21:37.033Z,9.57
2018-09-28T22:24:11.900Z,9.20
2018-09-28T22:26:46.715Z,9.47
2018-09-28T22:29:21.448Z,9.93
2018-09-28T22:31:56.217Z,9.57
2018-09-28T22:34:31.084Z,10.23
2018-09-28T22:37:06.458Z,11.23
2018-09-28T22:39:41.573Z,11.50
2018-09-28T22:42:16.715Z,11.83
2018-09-28T22:44:51.622Z,10.90
2018-09-28T22:47:26.277Z,10.50
2018-09-28T22:50:01.033Z,10.83
2018-09-28T22:52:35.816Z,11.50
2018-09-28T22:55:10.594Z,12.80
2018-09-28T22:57:45.804Z,12.33
2018-09-28T23:00:20.455Z,12.20
2018-09-28T23:02:55.290Z,13.70
2018-09-28T23:05:30.087Z,12.70
2018-09-28T23:08:04.857Z,14.47
2018-09-28T23:10:39.815Z,15.13
2018-09-28T23:13:15.546Z,15.03
2018-09-28T23:15:50.256Z,14.53
2018-09-28T23:18:26.242Z,17.47
2018-09-28T23:21:01.734Z,16.23
2018-09-28T23:23:36.429Z,16.37
2018-09-28T23:26:11.201Z,15.97
2018-09-28T23:28:46.570Z,16.03
2018-09-28T23:31:21.334Z,15.30
2018-09-28T23:33:56.349Z,15.27
2018-09-28T23:36:31.107Z,15.37
2018-09-28T23:39:07.917Z,14.90
2018-09-28T23:41:42.593Z,14.33
2018-09-28T23:44:17.941Z,13.93
2018-09-28T23:46:53.928Z,14.47
2018-09-28T23:49:28.714Z,13.43
2018-09-28T23:52:03.745Z,11.90
2018-09-28T23:54:38.477Z,12.30
2018-09-28T23:57:13.212Z,11.17
2018-09-28T23:59:48.425Z,12.07
